Time;durP1;ratioP1;P1;durP2;ratioP2;P2;SDS_P1;SDS_P2;PMS_P1;PMS_P2;Temp;Humidity;BMP_temperature;BMP_pressure;BME280_temperature;BME280_humidity;BME280_pressure;Samples;Min_cycle;Max_cycle;Signal;HPM_P1;HPM_P2
2021/07/30 00:12:39;;;;;;;0.80;0.70;;;15.30;72.50;;;;;;6054843;23;20042;-88
2021/07/30 00:15:06;;;;;;;0.63;0.50;;;15.20;72.40;;;;;;6012803;23;20047;-87
2021/07/30 00:17:46;;;;;;;0.30;0.30;;;15.30;72.50;;;;;;6013500;23;20122;-88
2021/07/30 00:20:12;;;;;;;1.83;1.00;;;15.30;72.50;;;;;;6001756;23;20015;-85
2021/07/30 00:30:04;;;;;;;0.70;0.70;;;15.20;72.60;;;;;;6005093;23;20039;-89
2021/07/30 00:32:51;;;;;;;0.57;0.57;;;15.10;72.60;;;;;;6000273;23;20056;-88
2021/07/30 00:35:44;;;;;;;0.65;0.50;;;15.00;72.70;;;;;;5981137;23;20031;-88
2021/07/30 00:38:12;;;;;;;0.65;0.63;;;15.00;73.50;;;;;;5982244;23;20024;-86
2021/07/30 00:40:40;;;;;;;0.70;0.57;;;15.00;72.90;;;;;;6006840;23;20156;-87
2021/07/30 00:43:06;;;;;;;1.30;0.70;;;15.00;72.90;;;;;;6003956;23;20082;-86
2021/07/30 00:50:12;;;;;;;0.75;0.75;;;15.00;72.90;;;;;;6049027;23;20029;-90
2021/07/30 00:53:19;;;;;;;0.80;0.60;;;15.00;72.90;;;;;;6120508;23;20108;-84
2021/07/30 00:55:48;;;;;;;0.82;0.40;;;14.90;72.80;;;;;;6122791;23;20029;-85
2021/07/30 01:19:49;;;;;;;0.52;0.52;;;14.70;73.10;;;;;;6036730;23;20034;-87
2021/07/30 01:22:27;;;;;;;0.68;0.50;;;14.70;73.10;;;;;;6029385;23;20034;-87
2021/07/30 01:24:53;;;;;;;0.40;0.40;;;14.70;73.00;;;;;;5964772;23;20532;-87
2021/07/30 01:27:21;;;;;;;1.13;0.68;;;14.70;72.90;;;;;;5990437;23;20090;-87
2021/07/30 01:29:47;;;;;;;0.60;0.50;;;14.70;72.90;;;;;;5989792;23;20074;-87
2021/07/30 01:32:16;;;;;;;0.95;0.60;;;14.70;73.00;;;;;;5990222;23;20007;-86
2021/07/30 01:34:45;;;;;;;0.77;0.60;;;14.80;73.10;;;;;;5934474;23;20015;-87
2021/07/30 01:37:14;;;;;;;0.85;0.70;;;14.70;73.00;;;;;;5935171;23;20023;-86
2021/07/30 01:39:40;;;;;;;1.02;0.88;;;14.70;73.10;;;;;;5930714;24;20092;-86
2021/07/30 01:42:10;;;;;;;0.75;0.70;;;14.80;73.20;;;;;;5928825;24;20466;-88
2021/07/30 01:44:41;;;;;;;0.70;0.60;;;14.70;73.20;;;;;;5930663;24;20095;-87
2021/07/30 01:47:08;;;;;;;1.00;0.60;;;14.70;73.20;;;;;;5957858;24;20024;-87
2021/07/30 01:49:38;;;;;;;1.00;0.70;;;14.60;73.20;;;;;;5962883;23;20028;-88
2021/07/30 01:52:07;;;;;;;0.60;0.52;;;14.60;73.20;;;;;;6156143;23;20010;-87
2021/07/30 01:54:35;;;;;;;1.85;0.60;;;14.60;73.30;;;;;;6106698;23;20032;-86
2021/07/30 01:57:01;;;;;;;2.95;0.80;;;14.60;73.40;;;;;;6107371;23;20026;-88
2021/07/30 01:59:34;;;;;;;1.08;0.68;;;14.60;73.50;;;;;;6067893;23;20022;-86
2021/07/30 02:01:59;;;;;;;0.63;0.50;;;14.50;73.50;;;;;;6010758;23;20038;-87
2021/07/30 02:04:25;;;;;;;0.98;0.70;;;14.50;73.50;;;;;;5999983;23;20007;-88
2021/07/30 02:06:51;;;;;;;1.13;0.65;;;14.50;73.50;;;;;;6010074;23;20034;-87
2021/07/30 02:09:19;;;;;;;0.80;0.50;;;14.50;73.50;;;;;;6037511;23;20036;-86
2021/07/30 02:11:53;;;;;;;0.60;0.57;;;14.60;73.60;;;;;;6034067;23;20070;-86
2021/07/30 02:14:20;;;;;;;1.10;0.57;;;14.40;73.60;;;;;;6125531;23;20018;-87
2021/07/30 02:16:48;;;;;;;0.60;0.60;;;14.40;73.60;;;;;;6104861;23;20006;-87
2021/07/30 02:19:17;;;;;;;1.08;0.80;;;14.40;73.70;;;;;;6131338;23;20029;-85
2021/07/30 02:21:44;;;;;;;0.85;0.60;;;14.40;73.70;;;;;;6122161;23;20010;-86
2021/07/30 02:24:10;;;;;;;0.60;0.57;;;14.40;73.80;;;;;;6077940;23;20022;-86
2021/07/30 02:26:36;;;;;;;0.80;0.70;;;14.30;73.80;;;;;;6077632;23;20041;-86
2021/07/30 02:29:21;;;;;;;0.70;0.50;;;14.30;73.80;;;;;;5154992;27;20146;-87
2021/07/30 02:31:49;;;;;;;0.90;0.60;;;14.40;73.90;;;;;;5080039;28;20044;-86
2021/07/30 02:34:22;;;;;;;0.68;0.50;;;14.40;74.00;;;;;;5079733;28;20035;-86
2021/07/30 02:36:48;;;;;;;1.17;0.65;;;14.30;74.00;;;;;;5036764;28;20049;-87
2021/07/30 02:39:22;;;;;;;0.80;0.68;;;14.30;74.00;;;;;;5020293;28;20049;-87
2021/07/30 02:41:54;;;;;;;1.83;0.45;;;14.30;74.10;;;;;;5029321;28;20045;-87
2021/07/30 02:44:28;;;;;;;0.63;0.63;;;14.20;74.10;;;;;;4981458;28;20065;-86
2021/07/30 02:46:57;;;;;;;1.13;0.50;;;14.20;74.10;;;;;;4964119;28;20134;-87
2021/07/30 02:49:27;;;;;;;0.50;0.50;;;14.20;74.20;;;;;;4917349;29;20132;-87
2021/07/30 02:51:56;;;;;;;0.50;0.50;;;14.10;74.30;;;;;;4916177;29;20040;-87
2021/07/30 02:54:22;;;;;;;0.50;0.50;;;14.10;74.40;;;;;;4915475;29;20549;-87
2021/07/30 02:56:48;;;;;;;0.90;0.55;;;14.10;74.50;;;;;;4917490;29;20063;-86
2021/07/30 02:59:16;;;;;;;0.45;0.45;;;14.10;74.60;;;;;;4914750;29;20136;-87
2021/07/30 03:01:45;;;;;;;1.48;0.68;;;14.00;74.60;;;;;;4939735;28;20039;-87
2021/07/30 03:04:11;;;;;;;0.88;0.73;;;14.00;74.70;;;;;;4954237;28;20038;-87
2021/07/30 03:06:37;;;;;;;0.70;0.70;;;14.00;74.80;;;;;;4965813;28;20031;-87
2021/07/30 03:09:06;;;;;;;0.65;0.50;;;14.00;74.80;;;;;;4972963;28;20532;-87
2021/07/30 03:11:37;;;;;;;1.05;0.60;;;14.10;74.90;;;;;;4953697;28;20109;-86
2021/07/30 03:14:05;;;;;;;0.43;0.43;;;14.00;75.50;;;;;;4957032;28;20039;-87
2021/07/30 03:16:34;;;;;;;0.82;0.40;;;14.00;75.00;;;;;;4940833;28;20042;-86
2021/07/30 03:19:02;;;;;;;0.57;0.50;;;13.90;74.90;;;;;;4976420;28;20049;-87
2021/07/30 03:21:35;;;;;;;0.63;0.60;;;13.90;75.00;;;;;;4989061;28;20157;-87
2021/07/30 03:24:01;;;;;;;0.80;0.63;;;13.90;75.10;;;;;;4934600;29;20050;-87
2021/07/30 03:26:27;;;;;;;0.93;0.80;;;13.80;75.10;;;;;;4934502;29;20040;-87
2021/07/30 03:28:53;;;;;;;0.80;0.52;;;13.80;75.20;;;;;;4933922;29;20450;-87
2021/07/30 03:31:18;;;;;;;0.50;0.50;;;13.90;75.30;;;;;;4973517;28;20069;-87
2021/07/30 03:33:47;;;;;;;0.93;0.60;;;13.80;75.30;;;;;;4975640;28;20046;-87
2021/07/30 03:36:13;;;;;;;1.20;0.70;;;13.70;75.30;;;;;;4975082;28;20046;-87
2021/07/30 03:38:41;;;;;;;0.50;0.50;;;13.70;75.30;;;;;;4973362;28;20110;-87
2021/07/30 03:41:10;;;;;;;1.00;0.50;;;13.80;75.50;;;;;;4880232;29;20060;-87
2021/07/30 03:43:38;;;;;;;0.57;0.57;;;13.70;75.50;;;;;;4898302;29;20056;-87
2021/07/30 03:46:11;;;;;;;0.80;0.50;;;13.70;75.60;;;;;;4933490;29;20102;-87
2021/07/30 03:48:36;;;;;;;0.30;0.30;;;13.70;75.70;;;;;;4958818;28;20087;-86
2021/07/30 03:51:10;;;;;;;0.60;0.50;;;13.60;75.60;;;;;;4958643;28;20066;-87
2021/07/30 03:53:41;;;;;;;0.70;0.50;;;13.60;75.70;;;;;;4964031;28;20038;-88
2021/07/30 03:56:19;;;;;;;0.40;0.40;;;13.60;75.80;;;;;;4943294;28;20042;-87
2021/07/30 03:58:53;;;;;;;0.40;0.40;;;13.60;75.90;;;;;;4958943;28;20038;-87
2021/07/30 04:01:28;;;;;;;0.73;0.55;;;13.50;75.80;;;;;;4975498;28;20058;-87
2021/07/30 04:04:02;;;;;;;1.08;0.63;;;13.60;75.90;;;;;;4975953;28;20115;-87
2021/07/30 04:06:33;;;;;;;1.48;0.70;;;13.60;75.80;;;;;;4976092;28;20046;-87
2021/07/30 04:09:18;;;;;;;0.50;0.50;;;13.70;75.90;;;;;;4898108;29;20056;-87
2021/07/30 04:11:54;;;;;;;0.93;0.70;;;13.60;75.80;;;;;;4855136;29;20041;-87
2021/07/30 04:14:37;;;;;;;0.77;0.55;;;13.70;75.80;;;;;;4883470;29;20491;-87
2021/07/30 04:17:08;;;;;;;1.13;0.68;;;13.70;75.80;;;;;;4900212;29;20044;-87
2021/07/30 04:19:43;;;;;;;0.52;0.50;;;13.70;75.70;;;;;;4883594;29;20044;-87
2021/07/30 04:22:16;;;;;;;0.73;0.47;;;13.70;75.70;;;;;;4899188;29;20115;-87
2021/07/30 04:24:47;;;;;;;0.73;0.70;;;13.80;75.70;;;;;;4879929;29;20181;-88
2021/07/30 04:27:18;;;;;;;;;;;13.80;75.60;;;;;;4845492;29;20575;-87
2021/07/30 04:29:56;;;;;;;0.43;0.43;;;13.80;75.60;;;;;;4861393;29;19930;-87
2021/07/30 04:32:37;;;;;;;0.40;0.40;;;13.80;75.60;;;;;;4832656;29;20043;-87
2021/07/30 04:35:11;;;;;;;0.65;0.55;;;13.90;75.60;;;;;;4840617;29;20043;-87
2021/07/30 04:38:09;;;;;;;0.90;0.57;;;13.80;75.60;;;;;;4848163;29;20069;-87
2021/07/30 04:40:45;;;;;;;0.60;0.50;;;13.90;75.70;;;;;;4845986;29;20041;-88
2021/07/30 04:43:16;;;;;;;0.95;0.55;;;13.90;75.60;;;;;;4840022;29;20046;-87
2021/07/30 04:46:16;;;;;;;1.08;0.52;;;13.90;75.60;;;;;;4825093;29;20049;-88
2021/07/30 04:48:49;;;;;;;0.52;0.40;;;13.90;75.60;;;;;;4865262;29;20058;-88
2021/07/30 04:51:18;;;;;;;1.17;0.60;;;14.00;75.50;;;;;;4828906;29;20092;-87
2021/07/30 04:57:41;;;;;;;0.70;0.63;;;14.20;75.40;;;;;;4817712;29;20087;-88
2021/07/30 05:00:32;;;;;;;0.95;0.57;;;14.40;75.10;;;;;;4833660;29;20084;-88
2021/07/30 05:03:47;;;;;;;0.88;0.60;;;14.40;74.80;;;;;;4814007;29;20059;-89
2021/07/30 05:06:22;;;;;;;1.02;0.70;;;14.60;74.70;;;;;;4770815;30;20566;-87
2021/07/30 05:09:08;;;;;;;0.68;0.60;;;14.60;74.50;;;;;;4761662;29;20522;-88
2021/07/30 05:11:47;;;;;;;1.02;0.60;;;14.60;74.30;;;;;;4808601;29;20050;-87
2021/07/30 05:14:43;;;;;;;0.68;0.60;;;14.70;74.30;;;;;;4807063;29;20055;-87
2021/07/30 05:17:22;;;;;;;1.48;0.70;;;14.80;74.40;;;;;;4789716;30;20051;-88
2021/07/30 05:19:59;;;;;;;0.43;0.43;;;14.90;74.40;;;;;;4805345;29;20050;-88
2021/07/30 05:22:27;;;;;;;0.40;0.40;;;14.90;74.40;;;;;;4776495;30;20044;-87
2021/07/30 05:24:56;;;;;;;0.93;0.60;;;14.90;74.40;;;;;;4797263;29;20054;-87
2021/07/30 05:27:28;;;;;;;0.50;0.50;;;14.90;74.40;;;;;;4797405;29;20042;-87
2021/07/30 05:29:58;;;;;;;0.50;0.50;;;15.00;74.60;;;;;;4830476;29;20061;-87
2021/07/30 05:32:29;;;;;;;0.50;0.50;;;15.00;74.60;;;;;;4862705;29;20552;-87
2021/07/30 05:34:55;;;;;;;;;;;15.10;74.70;;;;;;4841913;29;20091;-87
2021/07/30 05:37:24;;;;;;;0.40;0.40;;;15.00;74.60;;;;;;4841170;29;20007;-86
2021/07/30 05:39:53;;;;;;;0.68;0.50;;;15.10;74.60;;;;;;4827138;29;20145;-86
2021/07/30 05:45:16;;;;;;;0.60;0.60;;;15.20;74.70;;;;;;4837292;29;20106;-87
2021/07/30 05:48:03;;;;;;;0.80;0.63;;;15.30;74.70;;;;;;4824213;29;20140;-86
2021/07/30 05:50:44;;;;;;;0.80;0.70;;;15.40;74.60;;;;;;4805484;29;20043;-86
2021/07/30 05:53:21;;;;;;;0.88;0.70;;;15.40;74.50;;;;;;4782543;30;20146;-86
2021/07/30 05:55:49;;;;;;;1.17;0.50;;;15.50;74.40;;;;;;4799301;29;20039;-86
2021/07/30 05:58:16;;;;;;;0.95;0.70;;;15.60;74.40;;;;;;4793027;29;20062;-85
2021/07/30 06:00:41;;;;;;;0.60;0.60;;;15.60;74.40;;;;;;4798786;29;20050;-84
2021/07/30 06:03:08;;;;;;;1.38;0.70;;;15.70;74.40;;;;;;4811042;29;20053;-86
2021/07/30 06:05:33;;;;;;;0.50;0.50;;;15.70;74.40;;;;;;4817778;29;20053;-86
2021/07/30 06:08:05;;;;;;;0.93;0.63;;;15.90;74.40;;;;;;4843599;29;20045;-86
2021/07/30 06:10:32;;;;;;;1.15;0.70;;;15.90;74.30;;;;;;4859896;29;20045;-86
2021/07/30 06:13:02;;;;;;;0.52;0.52;;;16.10;74.30;;;;;;4872914;29;20075;-85
2021/07/30 06:15:28;;;;;;;1.52;0.70;;;16.10;74.10;;;;;;4890536;29;20058;-85
2021/07/30 06:17:59;;;;;;;0.73;0.60;;;16.20;74.00;;;;;;4918478;29;20131;-87
2021/07/30 06:20:25;;;;;;;0.60;0.52;;;16.30;74.00;;;;;;4932303;29;20047;-85
2021/07/30 06:22:51;;;;;;;0.60;0.60;;;16.30;73.90;;;;;;4902197;29;20603;-85
2021/07/30 06:25:17;;;;;;;0.55;0.55;;;16.30;73.90;;;;;;4929964;29;20071;-85
2021/07/30 06:27:43;;;;;;;0.52;0.50;;;16.40;74.00;;;;;;4929257;29;20454;-85
2021/07/30 06:30:12;;;;;;;0.93;0.68;;;16.40;74.10;;;;;;4933311;29;20043;-85
2021/07/30 06:32:38;;;;;;;1.00;0.60;;;16.60;74.10;;;;;;4904072;29;20531;-85
2021/07/30 06:35:05;;;;;;;0.50;0.50;;;16.60;74.00;;;;;;4932679;29;20044;-85
2021/07/30 06:37:33;;;;;;;0.60;0.60;;;16.60;73.80;;;;;;4921573;29;20048;-85
2021/07/30 06:40:10;;;;;;;0.93;0.80;;;16.80;73.80;;;;;;4922745;29;20069;-87
2021/07/30 06:42:46;;;;;;;1.63;1.00;;;16.80;73.60;;;;;;4997184;28;20058;-86
2021/07/30 06:45:28;;;;;;;1.40;1.10;;;17.00;73.40;;;;;;4967483;28;20054;-86
2021/07/30 06:47:54;;;;;;;1.63;0.95;;;17.00;73.40;;;;;;4961455;28;20048;-81
2021/07/30 06:50:20;;;;;;;1.20;0.85;;;17.10;73.40;;;;;;5010395;28;20167;-82
2021/07/30 06:52:45;;;;;;;1.60;0.95;;;17.30;73.40;;;;;;4977933;28;20042;-80
2021/07/30 06:56:11;;;;;;;1.33;0.95;;;17.20;73.20;;;;;;4978989;28;20046;-85
2021/07/30 06:59:00;;;;;;;2.38;0.85;;;17.40;73.20;;;;;;4897127;29;20128;-85
2021/07/30 07:01:28;;;;;;;1.63;0.85;;;17.50;73.10;;;;;;4920620;29;20044;-83
2021/07/30 07:04:00;;;;;;;1.75;1.08;;;17.50;72.80;;;;;;4893378;29;20058;-83
2021/07/30 07:06:26;;;;;;;0.80;0.80;;;17.70;72.70;;;;;;4911002;29;20115;-83
2021/07/30 07:08:55;;;;;;;0.82;0.73;;;17.70;72.60;;;;;;4936113;29;20490;-83
2021/07/30 07:11:20;;;;;;;2.25;0.73;;;17.80;72.60;;;;;;4919938;29;20552;-83
2021/07/30 07:13:46;;;;;;;1.70;0.95;;;17.90;72.50;;;;;;4935729;29;20043;-83
2021/07/30 07:16:12;;;;;;;0.77;0.57;;;18.00;72.50;;;;;;4949722;28;20071;-83
2021/07/30 07:19:18;;;;;;;0.95;0.90;;;18.20;72.50;;;;;;4923290;29;20040;-83
2021/07/30 07:21:50;;;;;;;0.82;0.77;;;18.10;72.40;;;;;;4841882;29;20042;-84
2021/07/30 07:24:44;;;;;;;1.73;1.10;;;18.30;72.50;;;;;;4823326;29;20050;-84
2021/07/30 07:27:36;;;;;;;1.83;0.90;;;18.30;72.40;;;;;;4804006;29;20110;-84
2021/07/30 07:30:28;;;;;;;1.25;0.90;;;18.30;72.40;;;;;;4793329;29;20100;-84
2021/07/30 07:33:14;;;;;;;1.30;1.00;;;18.30;72.40;;;;;;4790750;29;20046;-85
2021/07/30 07:36:06;;;;;;;2.58;0.90;;;18.40;72.30;;;;;;4855932;29;20051;-84
2021/07/30 07:41:50;;;;;;;2.08;1.10;;;18.60;72.10;;;;;;4805396;29;20133;-84
2021/07/30 07:44:27;;;;;;;1.98;1.00;;;18.60;72.10;;;;;;4790688;29;20096;-84
2021/07/30 07:46:57;;;;;;;1.02;0.70;;;18.80;72.00;;;;;;4779261;29;20046;-84
2021/07/30 07:50:05;;;;;;;0.75;0.60;;;19.00;71.80;;;;;;4777866;30;20051;-84
2021/07/30 08:00:30;;;;;;;1.02;0.80;;;19.20;71.40;;;;;;4721598;30;20040;-85
2021/07/30 08:03:38;;;;;;;0.57;0.50;;;19.40;71.40;;;;;;4697592;30;20045;-85
2021/07/30 08:07:17;;;;;;;1.08;0.77;;;19.70;71.10;;;;;;4706248;30;20057;-89
2021/07/30 08:09:45;;;;;;;1.33;0.88;;;19.80;70.90;;;;;;4694560;30;20097;-83
2021/07/30 08:16:04;;;;;;;1.13;0.98;;;20.10;70.20;;;;;;4750460;30;20056;-93
2021/07/30 08:18:30;;;;;;;1.73;1.00;;;20.30;70.20;;;;;;4753830;30;20056;-86
2021/07/30 08:21:17;;;;;;;0.73;0.70;;;20.50;70.00;;;;;;4765819;30;20415;-88
2021/07/30 08:23:58;;;;;;;1.58;0.98;;;20.50;69.80;;;;;;4799081;29;20062;-88
2021/07/30 08:33:54;;;;;;;1.00;0.90;;;20.50;70.00;;;;;;4770801;29;20062;-89
2021/07/30 08:36:23;;;;;;;1.73;0.95;;;20.60;69.90;;;;;;4823563;29;20049;-87
2021/07/30 08:38:51;;;;;;;0.68;0.60;;;20.80;69.90;;;;;;4873305;29;20188;-87
2021/07/30 08:41:52;;;;;;;0.70;0.70;;;20.90;69.80;;;;;;4866053;29;20048;-88
2021/07/30 08:51:46;;;;;;;0.70;0.50;;;21.20;69.60;;;;;;4787779;29;20180;-87
2021/07/30 09:09:39;;;;;;;0.80;0.70;;;21.30;69.70;;;;;;4840376;29;20085;-86
2021/07/30 09:12:05;;;;;;;0.80;0.80;;;21.30;69.70;;;;;;4841058;29;20159;-84
2021/07/30 09:14:48;;;;;;;1.17;0.70;;;21.50;69.40;;;;;;4843346;29;20038;-86
2021/07/30 09:17:53;;;;;;;1.05;0.70;;;21.60;69.20;;;;;;4844936;29;20622;-89
2021/07/30 09:20:37;;;;;;;1.00;0.77;;;21.80;69.00;;;;;;4906859;28;20059;-86
2021/07/30 09:23:49;;;;;;;1.20;0.82;;;21.90;68.70;;;;;;4975950;28;20069;-87
2021/07/30 09:30:27;;;;;;;1.05;0.65;;;22.10;68.20;;;;;;4863363;29;20071;-85
2021/07/30 09:45:55;;;;;;;1.58;0.90;;;22.50;67.80;;;;;;4895869;29;20451;-87
2021/07/30 09:55:53;;;;;;;0.77;0.77;;;22.70;67.70;;;;;;5561510;22;20054;-84
2021/07/30 09:58:19;;;;;;;1.17;0.80;;;22.80;67.50;;;;;;5074504;28;20047;-84
2021/07/30 10:01:21;;;;;;;2.55;0.90;;;22.90;67.40;;;;;;5091496;28;20052;-86
2021/07/30 10:03:52;;;;;;;1.02;0.80;;;22.80;67.10;;;;;;5089824;28;20494;-84
2021/07/30 10:06:19;;;;;;;0.70;0.70;;;22.80;67.50;;;;;;5091171;28;20040;-87
2021/07/30 10:08:53;;;;;;;0.63;0.60;;;23.00;67.40;;;;;;5035130;28;20049;-85
2021/07/30 10:12:22;;;;;;;1.30;0.77;;;22.90;67.50;;;;;;4991254;28;20041;-89
2021/07/30 10:18:53;;;;;;;0.70;0.70;;;23.00;67.20;;;;;;4879876;29;20044;-86
2021/07/30 10:22:05;;;;;;;1.88;0.82;;;23.10;66.90;;;;;;4853063;29;20049;-89
2021/07/30 10:24:40;;;;;;;1.13;1.02;;;23.20;66.90;;;;;;4824906;29;20037;-86
2021/07/30 10:27:28;;;;;;;0.60;0.60;;;23.20;66.70;;;;;;4839309;29;20042;-88
2021/07/30 10:33:42;;;;;;;0.82;0.82;;;23.40;66.80;;;;;;4756771;30;20039;-89
2021/07/30 10:52:23;;;;;;;0.70;0.60;;;23.70;66.40;;;;;;4875515;29;20064;-87
2021/07/30 10:54:52;;;;;;;0.80;0.73;;;23.80;66.20;;;;;;4884816;29;20040;-87
2021/07/30 10:57:50;;;;;;;0.88;0.80;;;24.20;65.80;;;;;;4882237;29;20037;-89
2021/07/30 11:00:16;;;;;;;1.23;1.05;;;24.20;65.10;;;;;;4886817;29;20561;-88
2021/07/30 11:03:05;;;;;;;1.08;1.00;;;24.20;65.10;;;;;;4927074;28;20063;-89
2021/07/30 11:05:31;;;;;;;1.77;1.20;;;24.40;64.80;;;;;;5041386;28;20066;-87
2021/07/30 11:08:00;;;;;;;1.65;1.30;;;24.30;64.70;;;;;;5061367;28;20044;-89
2021/07/30 11:10:25;;;;;;;1.20;1.10;;;24.10;64.90;;;;;;5075562;28;20508;-85
2021/07/30 11:12:55;;;;;;;1.70;1.10;;;24.30;65.10;;;;;;5060554;28;20055;-84
2021/07/30 11:15:21;;;;;;;1.60;0.93;;;24.50;64.70;;;;;;5094604;28;20447;-85
2021/07/30 11:17:49;;;;;;;1.40;1.02;;;24.50;64.30;;;;;;5078186;28;20127;-88
2021/07/30 11:20:16;;;;;;;1.40;1.08;;;24.40;64.20;;;;;;5096684;28;20032;-88
2021/07/30 11:22:41;;;;;;;1.00;0.90;;;24.30;64.60;;;;;;5056990;28;20136;-86
2021/07/30 11:25:13;;;;;;;1.10;1.00;;;24.30;64.80;;;;;;5040604;28;20060;-87
2021/07/30 11:27:46;;;;;;;0.88;0.88;;;24.30;64.50;;;;;;5041379;28;20114;-88
2021/07/30 11:30:17;;;;;;;2.05;1.38;;;24.30;64.40;;;;;;5022308;28;20045;-88
2021/07/30 11:32:45;;;;;;;1.25;1.15;;;24.30;64.30;;;;;;5014470;28;20126;-89
2021/07/30 11:35:11;;;;;;;1.38;1.17;;;24.20;64.20;;;;;;4961435;28;20146;-85
2021/07/30 11:41:14;;;;;;;1.10;1.00;;;24.70;63.60;;;;;;4938193;29;20076;-90
2021/07/30 11:44:18;;;;;;;1.42;1.05;;;24.80;63.20;;;;;;4874331;29;20145;-86
2021/07/30 11:47:41;;;;;;;1.50;1.00;;;25.00;63.00;;;;;;4879608;29;20041;-91
2021/07/30 11:50:52;;;;;;;1.05;1.00;;;24.90;62.90;;;;;;4798895;29;20107;-86
2021/07/30 11:53:50;;;;;;;;;;;24.90;63.20;;;;;;4767762;30;20523;-90
2021/07/30 11:56:43;;;;;;;0.75;0.75;;;24.90;63.20;;;;;;4772392;30;19925;-91
2021/07/30 11:59:46;;;;;;;1.33;1.13;;;25.00;63.00;;;;;;4789813;30;20487;-90
2021/07/30 12:02:14;;;;;;;1.38;1.10;;;24.90;62.90;;;;;;4804985;29;20038;-88
2021/07/30 12:05:18;;;;;;;1.70;1.10;;;24.90;63.00;;;;;;4833314;29;20110;-87
2021/07/30 12:18:21;;;;;;;1.00;0.90;;;24.50;63.80;;;;;;4864084;29;20662;-89
2021/07/30 12:20:48;;;;;;;;;;;24.60;63.90;;;;;;4858756;29;20050;-87
2021/07/30 12:23:27;;;;;;;1.20;1.10;;;24.40;63.90;;;;;;4861451;29;20019;-88
2021/07/30 12:25:55;;;;;;;1.35;0.93;;;24.50;63.80;;;;;;4838969;29;20045;-85
2021/07/30 12:28:23;;;;;;;2.90;1.10;;;24.60;63.70;;;;;;4815015;29;20058;-84
2021/07/30 12:30:56;;;;;;;2.08;1.10;;;24.40;63.60;;;;;;4891179;29;20044;-87
2021/07/30 12:33:27;;;;;;;1.52;1.20;;;24.30;63.90;;;;;;4923237;29;20130;-84
2021/07/30 12:36:29;;;;;;;1.65;1.20;;;24.20;64.00;;;;;;4918613;29;20046;-87
2021/07/30 12:39:02;;;;;;;1.90;1.20;;;24.10;64.00;;;;;;4930821;29;20044;-85
2021/07/30 12:41:32;;;;;;;1.40;1.20;;;24.00;63.90;;;;;;4918657;29;20067;-85
2021/07/30 12:47:58;;;;;;;1.70;1.10;;;23.80;63.90;;;;;;4918359;29;20078;-89
2021/07/30 12:50:32;;;;;;;1.25;1.15;;;23.80;64.10;;;;;;4976776;28;20076;-85
2021/07/30 12:53:15;;;;;;;1.98;1.20;;;23.70;63.90;;;;;;5037946;28;20045;-87
2021/07/30 12:56:28;;;;;;;1.40;1.10;;;23.70;63.70;;;;;;5059002;28;20036;-86
2021/07/30 12:58:57;;;;;;;1.48;1.02;;;23.80;63.30;;;;;;5037044;28;20061;-85
2021/07/30 13:02:36;;;;;;;1.67;1.17;;;23.80;63.20;;;;;;4959029;28;20086;-88
2021/07/30 13:09:02;;;;;;;1.10;1.00;;;23.70;63.20;;;;;;4924023;29;20051;-84
2021/07/30 13:11:28;;;;;;;1.15;1.05;;;23.80;63.00;;;;;;4918493;29;20449;-84
2021/07/30 13:14:04;;;;;;;1.45;1.10;;;23.80;62.90;;;;;;4927098;29;20050;-85
2021/07/30 13:16:31;;;;;;;1.63;1.27;;;24.10;62.50;;;;;;4932883;29;20126;-85
2021/07/30 13:19:00;;;;;;;1.55;1.30;;;24.10;62.10;;;;;;4921209;29;20054;-88
2021/07/30 13:21:26;;;;;;;2.33;1.52;;;24.00;61.90;;;;;;4919119;29;20104;-83
2021/07/30 13:24:21;;;;;;;2.38;1.48;;;24.00;61.80;;;;;;4915192;29;20440;-89
2021/07/30 13:26:48;;;;;;;1.58;1.38;;;23.90;61.80;;;;;;4896255;29;20135;-85
2021/07/30 13:29:25;;;;;;;2.00;1.48;;;23.90;61.80;;;;;;4929834;29;20644;-87
2021/07/30 13:35:19;;;;;;;1.48;1.20;;;23.90;61.90;;;;;;4896793;29;20058;-85
2021/07/30 13:37:45;;;;;;;2.42;1.33;;;24.00;62.00;;;;;;4902065;28;20453;-85
2021/07/30 13:40:31;;;;;;;2.33;1.45;;;24.00;61.90;;;;;;4956132;28;20094;-88
2021/07/30 13:42:59;;;;;;;2.38;1.15;;;23.90;61.90;;;;;;4959108;28;20858;-80
2021/07/30 13:45:29;;;;;;;1.90;1.40;;;24.00;62.00;;;;;;4976132;28;20044;-85
2021/07/30 13:55:28;;;;;;;1.80;1.30;;;24.10;62.20;;;;;;4898488;29;20131;-88
2021/07/30 13:58:05;;;;;;;1.42;1.33;;;24.20;61.50;;;;;;4918638;29;20044;-89
2021/07/30 14:01:42;;;;;;;1.30;1.20;;;24.30;61.30;;;;;;4901087;29;20048;-87
2021/07/30 14:05:28;;;;;;;1.70;1.40;;;24.40;61.20;;;;;;4900774;29;20079;-91
2021/07/30 14:08:27;;;;;;;1.77;1.30;;;24.40;61.10;;;;;;4892090;29;20151;-85
2021/07/30 14:11:26;;;;;;;1.70;1.20;;;24.30;61.30;;;;;;4902463;29;20138;-88
2021/07/30 14:13:52;;;;;;;2.80;1.63;;;24.20;61.50;;;;;;4920381;29;20557;-88
2021/07/30 14:16:22;;;;;;;2.00;1.45;;;24.10;61.60;;;;;;4900220;29;20040;-88
2021/07/30 14:18:48;;;;;;;1.88;1.40;;;24.00;61.80;;;;;;4900845;29;20107;-85
2021/07/30 14:21:32;;;;;;;2.67;1.50;;;24.00;61.80;;;;;;4915442;29;20455;-85
2021/07/30 14:24:12;;;;;;;1.48;1.38;;;24.00;61.90;;;;;;4902004;29;20064;-85
2021/07/30 14:26:38;;;;;;;2.07;1.47;;;23.90;61.90;;;;;;4862898;29;20048;-85
2021/07/30 14:32:44;;;;;;;1.40;1.20;;;23.80;62.20;;;;;;4821074;29;20461;-85
2021/07/30 14:35:10;;;;;;;1.50;1.30;;;23.70;62.50;;;;;;4823367;29;20514;-84
2021/07/30 14:37:37;;;;;;;2.00;1.08;;;23.30;62.90;;;;;;4823354;29;20046;-83
2021/07/30 14:40:05;;;;;;;1.45;1.20;;;23.00;63.90;;;;;;4822897;29;20039;-85
2021/07/30 14:42:31;;;;;;;1.20;1.10;;;22.70;64.70;;;;;;4836208;29;20049;-86
2021/07/30 14:44:58;;;;;;;1.27;1.15;;;22.50;65.50;;;;;;4846497;29;20409;-88
2021/07/30 14:47:24;;;;;;;1.10;0.90;;;22.50;66.00;;;;;;4839815;29;20061;-85
2021/07/30 14:49:50;;;;;;;1.33;1.10;;;22.40;66.20;;;;;;4858204;29;20050;-87
2021/07/30 14:52:15;;;;;;;2.72;1.15;;;22.50;66.40;;;;;;4856344;29;20042;-85
2021/07/30 14:54:41;;;;;;;1.25;0.93;;;22.40;66.40;;;;;;4857895;29;20057;-85
2021/07/30 14:57:08;;;;;;;1.17;1.08;;;22.50;66.60;;;;;;4880861;29;20622;-85
2021/07/30 14:59:33;;;;;;;1.10;1.00;;;22.60;66.70;;;;;;4926592;29;20046;-87
2021/07/30 15:02:02;;;;;;;1.10;0.98;;;22.60;66.40;;;;;;4974050;28;20106;-91
2021/07/30 15:04:27;;;;;;;1.63;1.10;;;22.60;66.50;;;;;;4971315;28;20050;-86
2021/07/30 15:06:53;;;;;;;1.10;1.00;;;22.40;66.70;;;;;;4970225;28;20040;-87
2021/07/30 15:09:19;;;;;;;0.90;0.90;;;22.50;67.10;;;;;;5015553;28;20095;-88
2021/07/30 15:11:45;;;;;;;1.90;1.10;;;22.40;67.20;;;;;;5019382;28;20495;-84
2021/07/30 15:14:16;;;;;;;1.13;1.02;;;22.40;67.40;;;;;;5035982;28;20064;-89
2021/07/30 15:16:46;;;;;;;1.23;1.13;;;22.40;67.70;;;;;;4952637;28;20043;-88
2021/07/30 15:19:16;;;;;;;2.17;1.13;;;22.30;67.70;;;;;;4954984;28;20045;-90
2021/07/30 15:21:54;;;;;;;1.90;1.20;;;22.30;67.80;;;;;;4995294;28;20100;-90
2021/07/30 15:24:20;;;;;;;1.00;0.90;;;22.30;67.90;;;;;;4994195;28;20347;-88
2021/07/30 15:26:46;;;;;;;1.75;1.23;;;22.30;68.10;;;;;;4995328;28;20073;-89
2021/07/30 15:29:14;;;;;;;1.38;1.10;;;22.20;68.10;;;;;;4994881;28;20050;-88
2021/07/30 15:31:41;;;;;;;1.33;1.10;;;22.10;68.30;;;;;;4991419;28;20444;-88
2021/07/30 15:34:09;;;;;;;1.25;1.15;;;22.30;68.50;;;;;;4976146;28;20043;-88
2021/07/30 15:36:37;;;;;;;1.38;1.20;;;22.20;68.50;;;;;;4993896;28;20030;-86
2021/07/30 15:39:10;;;;;;;1.45;1.20;;;22.20;68.60;;;;;;4995428;28;20050;-88
2021/07/30 15:41:36;;;;;;;1.85;1.13;;;22.10;68.80;;;;;;4990698;28;20141;-87
2021/07/30 15:44:06;;;;;;;0.90;0.90;;;22.10;68.70;;;;;;4973357;28;20398;-87
2021/07/30 15:46:39;;;;;;;1.15;1.05;;;22.10;68.70;;;;;;4945487;28;20090;-88
2021/07/30 15:49:05;;;;;;;1.92;1.30;;;22.40;68.30;;;;;;5021059;28;20560;-88
2021/07/30 15:51:31;;;;;;;1.05;1.00;;;22.60;67.90;;;;;;5002991;28;20042;-87
2021/07/30 15:53:57;;;;;;;1.23;0.95;;;22.70;67.70;;;;;;5020317;28;20070;-88
2021/07/30 15:56:29;;;;;;;3.28;1.17;;;22.70;67.60;;;;;;5004377;28;20398;-89
2021/07/30 15:59:02;;;;;;;1.20;1.10;;;22.80;67.50;;;;;;5021714;28;20040;-91
2021/07/30 16:01:28;;;;;;;3.00;1.38;;;22.80;67.40;;;;;;5005113;28;20059;-86
2021/07/30 16:03:54;;;;;;;1.35;1.17;;;23.00;67.40;;;;;;5055086;28;20025;-86
2021/07/30 16:06:22;;;;;;;1.10;1.00;;;22.90;67.30;;;;;;5041136;28;20044;-86
2021/07/30 16:08:47;;;;;;;1.25;1.15;;;23.00;67.40;;;;;;5057820;28;20513;-85
2021/07/30 16:11:15;;;;;;;1.48;1.20;;;22.90;67.30;;;;;;5041123;28;20033;-82
2021/07/30 16:13:42;;;;;;;1.45;1.10;;;23.00;67.30;;;;;;5053461;28;20032;-86
2021/07/30 16:16:11;;;;;;;1.10;1.00;;;22.90;67.10;;;;;;5058351;28;20024;-86
2021/07/30 16:18:39;;;;;;;1.00;0.93;;;23.00;67.10;;;;;;5049326;28;20126;-82
2021/07/30 16:21:05;;;;;;;1.00;0.90;;;22.90;67.00;;;;;;5036489;28;20435;-86
2021/07/30 16:23:31;;;;;;;0.90;0.90;;;22.80;67.10;;;;;;5037539;28;20480;-87
2021/07/30 16:25:57;;;;;;;1.00;0.95;;;22.70;67.40;;;;;;5039005;28;20052;-88
2021/07/30 16:28:23;;;;;;;1.00;0.90;;;22.60;67.50;;;;;;5037498;28;20111;-88